createdAt,value
2023-06-28T00:00:35.190Z,95101.00
2023-06-28T00:01:35.229Z,95104.00
2023-06-28T00:02:35.175Z,95104.00
2023-06-28T00:03:35.261Z,95107.00
2023-06-28T00:04:35.209Z,95104.00
2023-06-28T00:05:35.212Z,95098.00
2023-06-28T00:06:35.220Z,95094.00
2023-06-28T00:07:35.332Z,95093.00
2023-06-28T00:08:35.245Z,95089.00
2023-06-28T00:09:35.230Z,95087.00
2023-06-28T00:10:35.237Z,95085.00
2023-06-28T00:11:35.262Z,95084.00
2023-06-28T00:12:35.248Z,95085.00
2023-06-28T00:13:35.261Z,95087.00
2023-06-28T00:14:35.280Z,95087.00
2023-06-28T00:15:35.309Z,95090.00
2023-06-28T00:16:35.311Z,95090.00
2023-06-28T00:17:35.371Z,95094.00
2023-06-28T00:18:35.323Z,95095.00
2023-06-28T00:19:35.346Z,95096.00
2023-06-28T00:20:35.317Z,95094.00
2023-06-28T00:21:35.336Z,95094.00
2023-06-28T00:22:36.380Z,95096.00
2023-06-28T00:23:35.323Z,95095.00
2023-06-28T00:24:35.294Z,95091.00
2023-06-28T00:25:35.285Z,95092.00
2023-06-28T00:26:35.278Z,95091.00
2023-06-28T00:27:35.254Z,95089.00
2023-06-28T00:28:35.244Z,95091.00
2023-06-28T00:29:35.259Z,95090.00
2023-06-28T00:30:35.276Z,95092.00
2023-06-28T00:31:35.338Z,95092.00
2023-06-28T00:32:35.370Z,95093.00
2023-06-28T00:33:35.250Z,95092.00
2023-06-28T00:34:35.210Z,95091.00
2023-06-28T00:35:35.220Z,95086.00
2023-06-28T00:36:35.209Z,95085.00
2023-06-28T00:37:35.213Z,95086.00
2023-06-28T00:38:35.192Z,95086.00
2023-06-28T00:39:35.203Z,95091.00
2023-06-28T00:40:35.208Z,95091.00
2023-06-28T00:41:35.175Z,95095.00
2023-06-28T00:42:35.161Z,95096.00
2023-06-28T00:43:35.174Z,95095.00
2023-06-28T00:44:35.155Z,95096.00
2023-06-28T00:45:35.160Z,95097.00
2023-06-28T00:46:35.160Z,95097.00
2023-06-28T00:47:35.163Z,95098.00
2023-06-28T00:48:35.126Z,95099.00
2023-06-28T00:49:35.127Z,95100.00
2023-06-28T00:50:35.133Z,95100.00
2023-06-28T00:51:35.095Z,95097.00
2023-06-28T00:52:35.195Z,95098.00
2023-06-28T00:53:35.114Z,95096.00
2023-06-28T00:54:35.188Z,95096.00
2023-06-28T00:55:35.150Z,95097.00
2023-06-28T00:56:35.164Z,95096.00
2023-06-28T00:57:35.199Z,95098.00
2023-06-28T00:58:35.224Z,95097.00
2023-06-28T00:59:35.219Z,95097.00
2023-06-28T01:00:35.262Z,95097.00
2023-06-28T01:01:35.273Z,95097.00
2023-06-28T01:02:35.434Z,95097.00
2023-06-28T01:03:35.410Z,95098.00
2023-06-28T01:04:35.346Z,95095.00
2023-06-28T01:05:35.382Z,95096.00
2023-06-28T01:06:35.366Z,95094.00
2023-06-28T01:07:35.485Z,95095.00
2023-06-28T01:08:35.423Z,95095.00
2023-06-28T01:09:35.462Z,95094.00
2023-06-28T01:10:35.520Z,95094.00
2023-06-28T01:11:35.529Z,95094.00
2023-06-28T01:12:35.556Z,95091.00
2023-06-28T01:13:35.572Z,95093.00
2023-06-28T01:14:35.608Z,95094.00
2023-06-28T01:15:35.644Z,95094.00
2023-06-28T01:16:35.637Z,95095.00
2023-06-28T01:17:35.865Z,95097.00
2023-06-28T01:18:35.703Z,95098.00
2023-06-28T01:19:35.772Z,95101.00
2023-06-28T01:20:35.778Z,95104.00
2023-06-28T01:21:35.796Z,95108.00
2023-06-28T01:22:35.810Z,95111.00
2023-06-28T01:23:35.888Z,95109.00
2023-06-28T01:24:35.915Z,95111.00
2023-06-28T01:25:35.934Z,95111.00
2023-06-28T01:26:35.943Z,95111.00
2023-06-28T01:27:35.988Z,95107.00
2023-06-28T01:28:36.032Z,95106.00
2023-06-28T01:29:36.065Z,95108.00
2023-06-28T01:30:36.103Z,95106.00
2023-06-28T01:31:36.107Z,95104.00
2023-06-28T01:32:36.153Z,95106.00
2023-06-28T01:33:36.218Z,95107.00
2023-06-28T01:34:36.213Z,95108.00
2023-06-28T01:35:36.259Z,95108.00
2023-06-28T01:36:36.289Z,95113.00
2023-06-28T01:37:36.301Z,95116.00
2023-06-28T01:38:36.374Z,95118.00
2023-06-28T01:39:36.385Z,95121.00
2023-06-28T01:40:36.434Z,95121.00
2023-06-28T01:41:36.483Z,95123.00
2023-06-28T01:42:36.487Z,95124.00
2023-06-28T01:43:36.560Z,95122.00
2023-06-28T01:44:36.568Z,95120.00
2023-06-28T01:45:36.650Z,95121.00
2023-06-28T01:46:36.630Z,95122.00
2023-06-28T01:47:36.790Z,95121.00
2023-06-28T01:48:36.718Z,95125.00
2023-06-28T01:49:36.742Z,95123.00
2023-06-28T01:50:36.803Z,95125.00
2023-06-28T01:51:36.881Z,95124.00
2023-06-28T01:52:36.912Z,95126.00
2023-06-28T01:53:36.910Z,95127.00
2023-06-28T01:54:36.971Z,95130.00
2023-06-28T01:55:37.056Z,95129.00
2023-06-28T01:56:37.077Z,95132.00
2023-06-28T01:57:37.108Z,95132.00
2023-06-28T01:58:37.164Z,95131.00
2023-06-28T01:59:37.202Z,95134.00
2023-06-28T02:00:38.102Z,95135.00
2023-06-28T02:01:37.296Z,95137.00
2023-06-28T02:02:37.418Z,95139.00
2023-06-28T02:03:37.397Z,95137.00
2023-06-28T02:04:37.440Z,95138.00
2023-06-28T02:05:37.454Z,95136.00
2023-06-28T02:06:37.505Z,95135.00
2023-06-28T02:07:37.546Z,95133.00
2023-06-28T02:08:37.680Z,95133.00
2023-06-28T02:09:37.625Z,95133.00
2023-06-28T02:10:37.688Z,95135.00
2023-06-28T02:11:37.728Z,95136.00
2023-06-28T02:12:37.766Z,95135.00
2023-06-28T02:13:37.820Z,95137.00
2023-06-28T02:14:37.889Z,95137.00
2023-06-28T02:15:37.925Z,95141.00
2023-06-28T02:16:38.004Z,95144.00
2023-06-28T02:17:38.043Z,95149.00
2023-06-28T02:18:38.049Z,95148.00
2023-06-28T02:19:38.119Z,95154.00
2023-06-28T02:20:38.199Z,95159.00
2023-06-28T02:21:38.219Z,95165.00
2023-06-28T02:22:38.265Z,95167.00
2023-06-28T02:23:38.333Z,95173.00
2023-06-28T02:24:38.370Z,95173.00
2023-06-28T02:25:38.419Z,95174.00
2023-06-28T02:26:38.491Z,95173.00
2023-06-28T02:27:38.528Z,95178.00
2023-06-28T02:28:38.572Z,95179.00
2023-06-28T02:29:38.606Z,95183.00
2023-06-28T02:30:38.659Z,95189.00
2023-06-28T02:31:38.750Z,95190.00
2023-06-28T02:32:38.752Z,95188.00
2023-06-28T02:33:38.820Z,95192.00
2023-06-28T02:34:38.894Z,95192.00
2023-06-28T02:35:38.931Z,95195.00
2023-06-28T02:36:38.966Z,95202.00
2023-06-28T02:37:39.041Z,95204.00
2023-06-28T02:38:39.108Z,95206.00
2023-06-28T02:39:39.202Z,95207.00
2023-06-28T02:40:39.214Z,95208.00
2023-06-28T02:41:39.312Z,95208.00
2023-06-28T02:42:39.336Z,95208.00
2023-06-28T02:43:39.386Z,95209.00
2023-06-28T02:44:39.484Z,95208.00
2023-06-28T02:45:39.549Z,95207.00
2023-06-28T02:46:39.670Z,95209.00
2023-06-28T02:47:39.800Z,95209.00
2023-06-28T02:48:39.701Z,95208.00
2023-06-28T02:49:39.724Z,95209.00
2023-06-28T02:50:39.952Z,95206.00
2023-06-28T02:51:39.840Z,95207.00
2023-06-28T02:52:39.819Z,95205.00
2023-06-28T02:53:39.801Z,95206.00
2023-06-28T02:54:39.865Z,95209.00
2023-06-28T02:55:39.846Z,95212.00
2023-06-28T02:56:39.886Z,95219.00
2023-06-28T02:57:39.835Z,95222.00
2023-06-28T02:58:39.848Z,95224.00
2023-06-28T02:59:39.833Z,95224.00
2023-06-28T03:00:40.106Z,95224.00
2023-06-28T03:01:39.852Z,95224.00
2023-06-28T03:02:39.930Z,95227.00
2023-06-28T03:03:39.922Z,95223.00
2023-06-28T03:04:39.834Z,95224.00
2023-06-28T03:05:39.867Z,95224.00
2023-06-28T03:06:39.846Z,95226.00
2023-06-28T03:07:39.937Z,95227.00
2023-06-28T03:08:39.819Z,95226.00
2023-06-28T03:09:39.854Z,95230.00
2023-06-28T03:10:40.266Z,95231.00
2023-06-28T03:11:39.847Z,95236.00
2023-06-28T03:12:39.803Z,95236.00
2023-06-28T03:13:39.855Z,95237.00
2023-06-28T03:14:39.834Z,95237.00
2023-06-28T03:15:39.832Z,95237.00
2023-06-28T03:16:39.844Z,95234.00
2023-06-28T03:17:39.883Z,95234.00
2023-06-28T03:18:39.856Z,95237.00
2023-06-28T03:19:39.841Z,95236.00
2023-06-28T03:20:39.960Z,95237.00
2023-06-28T03:21:39.904Z,95236.00
2023-06-28T03:22:39.896Z,95238.00
2023-06-28T03:23:39.929Z,95236.00
2023-06-28T03:24:39.891Z,95236.00
2023-06-28T03:25:39.926Z,95233.00
2023-06-28T03:26:39.958Z,95231.00
2023-06-28T03:27:39.938Z,95231.00
2023-06-28T03:28:39.955Z,95233.00
2023-06-28T03:29:39.951Z,95235.00
2023-06-28T03:30:40.202Z,95238.00
2023-06-28T03:31:40.042Z,95240.00
2023-06-28T03:32:40.036Z,95241.00
2023-06-28T03:33:40.028Z,95240.00
2023-06-28T03:34:40.020Z,95239.00
2023-06-28T03:35:40.054Z,95238.00
2023-06-28T03:36:47.506Z,95235.00
2023-06-28T03:37:41.029Z,95231.00
2023-06-28T03:38:40.043Z,95231.00
2023-06-28T03:39:40.041Z,95233.00
2023-06-28T03:40:40.285Z,95235.00
2023-06-28T03:41:40.027Z,95236.00
2023-06-28T03:42:39.992Z,95238.00
2023-06-28T03:43:40.006Z,95240.00
2023-06-28T03:44:39.997Z,95241.00
2023-06-28T03:45:39.981Z,95237.00
2023-06-28T03:46:40.072Z,95236.00
2023-06-28T03:47:40.062Z,95236.00
2023-06-28T03:48:39.999Z,95237.00
2023-06-28T03:49:39.949Z,95244.00
2023-06-28T03:50:40.193Z,95245.00
2023-06-28T03:51:39.943Z,95250.00
2023-06-28T03:52:39.957Z,95248.00
2023-06-28T03:53:39.947Z,95249.00
2023-06-28T03:54:39.915Z,95249.00
2023-06-28T03:55:39.924Z,95245.00
2023-06-28T03:56:39.903Z,95241.00
2023-06-28T03:57:39.921Z,95244.00
2023-06-28T03:58:39.907Z,95241.00
2023-06-28T03:59:39.895Z,95245.00
2023-06-28T04:00:40.105Z,95249.00
2023-06-28T04:01:39.875Z,95256.00
2023-06-28T04:02:40.106Z,95259.00
2023-06-28T04:03:40.073Z,95258.00
2023-06-28T04:04:39.984Z,95260.00
2023-06-28T04:05:39.991Z,95264.00
2023-06-28T04:06:40.062Z,95264.00
2023-06-28T04:07:40.203Z,95264.00
2023-06-28T04:08:40.076Z,95265.00
2023-06-28T04:09:40.157Z,95265.00
2023-06-28T04:10:40.333Z,95264.00
2023-06-28T04:11:40.187Z,95267.00
2023-06-28T04:12:40.223Z,95265.00
2023-06-28T04:13:40.246Z,95262.00
2023-06-28T04:14:40.301Z,95260.00
2023-06-28T04:15:40.378Z,95260.00
2023-06-28T04:16:40.351Z,95261.00
2023-06-28T04:17:40.449Z,95263.00
2023-06-28T04:18:40.444Z,95263.00
2023-06-28T04:19:40.493Z,95264.00
2023-06-28T04:20:40.817Z,95266.00
2023-06-28T04:21:40.534Z,95267.00
2023-06-28T04:22:40.609Z,95269.00
2023-06-28T04:23:40.608Z,95270.00
2023-06-28T04:24:40.683Z,95265.00
2023-06-28T04:25:40.711Z,95266.00
2023-06-28T04:26:40.754Z,95266.00
2023-06-28T04:27:40.778Z,95267.00
2023-06-28T04:28:40.823Z,95270.00
2023-06-28T04:29:40.858Z,95270.00
2023-06-28T04:30:41.283Z,95272.00
2023-06-28T04:31:40.960Z,95276.00
2023-06-28T04:32:40.981Z,95278.00
2023-06-28T04:33:41.000Z,95276.00
2023-06-28T04:34:41.066Z,95275.00
2023-06-28T04:35:41.074Z,95277.00
2023-06-28T04:36:41.185Z,95278.00
2023-06-28T04:37:41.172Z,95280.00
2023-06-28T04:38:41.208Z,95280.00
2023-06-28T04:39:41.251Z,95279.00
2023-06-28T04:40:41.571Z,95282.00
2023-06-28T04:41:41.301Z,95283.00
2023-06-28T04:42:41.335Z,95284.00
2023-06-28T04:43:41.839Z,95284.00
2023-06-28T04:44:41.410Z,95284.00
2023-06-28T04:45:41.498Z,95285.00
2023-06-28T04:46:41.507Z,95287.00
2023-06-28T04:47:41.519Z,95285.00
2023-06-28T04:48:41.573Z,95285.00
2023-06-28T04:49:41.565Z,95283.00
2023-06-28T04:50:41.856Z,95283.00
2023-06-28T04:51:41.678Z,95283.00
2023-06-28T04:52:41.718Z,95283.00
2023-06-28T04:53:41.777Z,95284.00
2023-06-28T04:54:41.850Z,95287.00
2023-06-28T04:55:41.916Z,95287.00
2023-06-28T04:56:41.953Z,95288.00
2023-06-28T04:57:41.994Z,95286.00
2023-06-28T04:58:42.072Z,95288.00
2023-06-28T04:59:42.104Z,95287.00
2023-06-28T05:00:42.514Z,95288.00
2023-06-28T05:01:42.308Z,95288.00
2023-06-28T05:02:42.304Z,95287.00
2023-06-28T05:03:42.318Z,95288.00
2023-06-28T05:04:42.341Z,95286.00
2023-06-28T05:05:42.394Z,95288.00
2023-06-28T05:06:42.446Z,95292.00
2023-06-28T05:07:42.499Z,95293.00
2023-06-28T05:08:42.476Z,95297.00
2023-06-28T05:09:42.511Z,95294.00
2023-06-28T05:10:42.792Z,95295.00
2023-06-28T05:11:42.640Z,95296.00
2023-06-28T05:12:42.666Z,95298.00
2023-06-28T05:13:42.725Z,95297.00
2023-06-28T05:14:42.772Z,95297.00
2023-06-28T05:15:42.809Z,95295.00
2023-06-28T05:16:42.844Z,95292.00
2023-06-28T05:17:42.923Z,95292.00
2023-06-28T05:18:42.946Z,95292.00
2023-06-28T05:19:43.014Z,95294.00
2023-06-28T05:20:43.265Z,95294.00
2023-06-28T05:21:43.055Z,95297.00
2023-06-28T05:22:43.135Z,95298.00
2023-06-28T05:23:43.149Z,95297.00
2023-06-28T05:24:43.218Z,95293.00
2023-06-28T05:25:43.265Z,95294.00
2023-06-28T05:26:43.299Z,95300.00
2023-06-28T05:27:43.364Z,95303.00
2023-06-28T05:28:43.446Z,95304.00
2023-06-28T05:29:43.430Z,95302.00
2023-06-28T05:30:43.789Z,95302.00
2023-06-28T05:31:43.584Z,95303.00
2023-06-28T05:32:43.636Z,95299.00
2023-06-28T05:33:43.616Z,95303.00
2023-06-28T05:34:43.645Z,95301.00
2023-06-28T05:35:43.817Z,95302.00
2023-06-28T05:36:43.751Z,95302.00
2023-06-28T05:37:43.789Z,95304.00
2023-06-28T05:38:44.684Z,95304.00
2023-06-28T05:39:43.886Z,95305.00
2023-06-28T05:40:44.152Z,95306.00
2023-06-28T05:41:43.996Z,95306.00
2023-06-28T05:42:44.004Z,95307.00
2023-06-28T05:43:44.088Z,95307.00
2023-06-28T05:44:44.092Z,95309.00
2023-06-28T05:45:44.177Z,95307.00
2023-06-28T05:46:44.173Z,95309.00
2023-06-28T05:47:44.312Z,95309.00
2023-06-28T05:48:44.342Z,95310.00
2023-06-28T05:49:44.356Z,95311.00
2023-06-28T05:50:45.993Z,95310.00
2023-06-28T05:51:44.455Z,95315.00
2023-06-28T05:52:44.462Z,95314.00
2023-06-28T05:53:44.529Z,95315.00
2023-06-28T05:54:44.577Z,95310.00
2023-06-28T05:55:44.633Z,95313.00
2023-06-28T05:56:44.685Z,95312.00
2023-06-28T05:57:44.787Z,95312.00
2023-06-28T05:58:44.841Z,95311.00
2023-06-28T05:59:44.874Z,95312.00
2023-06-28T06:00:45.169Z,95314.00
2023-06-28T06:01:44.980Z,95313.00
2023-06-28T06:02:45.072Z,95318.00
2023-06-28T06:03:45.178Z,95318.00
2023-06-28T06:04:45.121Z,95319.00
2023-06-28T06:05:45.248Z,95321.00
2023-06-28T06:06:45.256Z,95322.00
2023-06-28T06:07:45.307Z,95321.00
2023-06-28T06:08:45.357Z,95323.00
2023-06-28T06:09:45.446Z,95324.00
2023-06-28T06:10:45.492Z,95323.00
2023-06-28T06:11:45.536Z,95322.00
2023-06-28T06:12:45.645Z,95323.00
2023-06-28T06:13:45.646Z,95327.00
2023-06-28T06:14:45.737Z,95326.00
2023-06-28T06:15:45.813Z,95328.00
2023-06-28T06:16:45.844Z,95330.00
2023-06-28T06:17:45.904Z,95328.00
2023-06-28T06:18:45.936Z,95328.00
2023-06-28T06:19:45.990Z,95327.00
2023-06-28T06:20:46.074Z,95325.00
2023-06-28T06:21:46.083Z,95326.00
2023-06-28T06:22:46.186Z,95329.00
2023-06-28T06:23:46.255Z,95327.00
2023-06-28T06:24:46.250Z,95323.00
2023-06-28T06:25:46.349Z,95323.00
2023-06-28T06:26:46.380Z,95325.00
2023-06-28T06:27:46.471Z,95328.00
2023-06-28T06:28:46.536Z,95328.00
2023-06-28T06:29:46.552Z,95330.00
2023-06-28T06:30:46.896Z,95331.00
2023-06-28T06:31:46.684Z,95330.00
2023-06-28T06:32:46.778Z,95332.00
2023-06-28T06:33:46.818Z,95333.00
2023-06-28T06:34:46.823Z,95332.00
2023-06-28T06:35:46.903Z,95334.00
2023-06-28T06:36:46.955Z,95334.00
2023-06-28T06:37:47.344Z,95335.00
2023-06-28T06:38:47.049Z,95339.00
2023-06-28T06:39:47.133Z,95338.00
2023-06-28T06:40:47.198Z,95337.00
2023-06-28T06:41:47.245Z,95338.00
2023-06-28T06:42:47.289Z,95339.00
2023-06-28T06:43:47.379Z,95341.00
2023-06-28T06:44:47.463Z,95340.00
2023-06-28T06:45:47.546Z,95345.00
2023-06-28T06:46:47.533Z,95345.00
2023-06-28T06:47:47.710Z,95344.00
2023-06-28T06:48:47.678Z,95345.00
2023-06-28T06:49:47.748Z,95343.00
2023-06-28T06:50:47.837Z,95346.00
2023-06-28T06:51:47.885Z,95347.00
2023-06-28T06:52:47.937Z,95347.00
2023-06-28T06:53:47.994Z,95347.00
2023-06-28T06:54:48.061Z,95348.00
2023-06-28T06:55:48.128Z,95348.00
2023-06-28T06:56:48.184Z,95350.00
2023-06-28T06:57:48.207Z,95351.00
2023-06-28T06:58:48.296Z,95350.00
2023-06-28T06:59:48.336Z,95353.00
2023-06-28T07:00:48.448Z,95353.00
2023-06-28T07:01:48.484Z,95355.00
2023-06-28T07:02:48.509Z,95355.00
2023-06-28T07:03:48.555Z,95355.00
2023-06-28T07:04:48.589Z,95352.00
2023-06-28T07:05:48.972Z,95352.00
2023-06-28T07:06:48.728Z,95349.00
2023-06-28T07:07:48.753Z,95349.00
2023-06-28T07:08:48.837Z,95351.00
2023-06-28T07:09:48.866Z,95351.00
2023-06-28T07:10:48.949Z,95352.00
2023-06-28T07:11:48.986Z,95353.00
2023-06-28T07:12:49.066Z,95355.00
2023-06-28T07:13:49.124Z,95354.00
2023-06-28T07:14:49.150Z,95355.00
2023-06-28T07:15:49.267Z,95352.00
2023-06-28T07:16:49.293Z,95352.00
2023-06-28T07:17:49.400Z,95352.00
2023-06-28T07:18:50.361Z,95353.00
2023-06-28T07:19:49.639Z,95355.00
2023-06-28T07:20:49.643Z,95354.00
2023-06-28T07:21:49.697Z,95352.00
2023-06-28T07:22:49.764Z,95351.00
2023-06-28T07:23:49.825Z,95353.00
2023-06-28T07:24:49.847Z,95352.00
2023-06-28T07:25:49.900Z,95353.00
2023-06-28T07:26:49.927Z,95353.00
2023-06-28T07:27:49.964Z,95353.00
2023-06-28T07:28:50.053Z,95355.00
2023-06-28T07:29:50.057Z,95355.00
2023-06-28T07:30:50.080Z,95354.00
2023-06-28T07:31:50.094Z,95352.00
2023-06-28T07:32:50.168Z,95355.00
2023-06-28T07:33:50.155Z,95352.00
2023-06-28T07:34:50.185Z,95353.00
2023-06-28T07:35:50.266Z,95351.00
2023-06-28T07:36:50.311Z,95353.00
2023-06-28T07:37:50.337Z,95354.00
2023-06-28T07:38:50.391Z,95354.00
2023-06-28T07:39:50.451Z,95356.00
2023-06-28T07:40:50.491Z,95358.00
2023-06-28T07:41:50.547Z,95359.00
2023-06-28T07:42:50.559Z,95360.00
2023-06-28T07:43:50.565Z,95359.00
2023-06-28T07:44:50.697Z,95360.00
2023-06-28T07:45:50.617Z,95359.00
2023-06-28T07:46:50.652Z,95362.00
2023-06-28T07:47:50.756Z,95359.00
2023-06-28T07:48:50.767Z,95361.00
2023-06-28T07:49:50.814Z,95361.00
2023-06-28T07:50:50.848Z,95361.00
2023-06-28T07:51:50.916Z,95362.00
2023-06-28T07:52:50.929Z,95362.00
2023-06-28T07:53:51.003Z,95365.00
2023-06-28T07:54:50.974Z,95361.00
2023-06-28T07:55:51.031Z,95364.00
2023-06-28T07:56:51.063Z,95362.00
2023-06-28T07:57:51.134Z,95359.00
2023-06-28T07:58:51.134Z,95361.00
2023-06-28T07:59:51.130Z,95359.00
2023-06-28T08:00:51.387Z,95361.00
2023-06-28T08:01:51.215Z,95360.00
2023-06-28T08:02:51.317Z,95363.00
2023-06-28T08:03:51.341Z,95362.00
2023-06-28T08:04:51.307Z,95363.00
2023-06-28T08:05:51.350Z,95364.00
2023-06-28T08:06:51.421Z,95364.00
2023-06-28T08:07:51.375Z,95366.00
2023-06-28T08:08:51.351Z,95364.00
2023-06-28T08:09:51.399Z,95364.00
2023-06-28T08:10:51.424Z,95365.00
2023-06-28T08:11:51.488Z,95365.00
2023-06-28T08:12:51.505Z,95362.00
2023-06-28T08:13:51.513Z,95363.00
2023-06-28T08:14:51.548Z,95364.00
2023-06-28T08:15:51.542Z,95364.00
2023-06-28T08:16:51.608Z,95363.00
2023-06-28T08:17:51.605Z,95363.00
2023-06-28T08:18:51.614Z,95362.00
2023-06-28T08:19:51.649Z,95361.00
2023-06-28T08:20:51.677Z,95362.00
2023-06-28T08:21:51.702Z,95362.00
2023-06-28T08:22:51.705Z,95362.00
2023-06-28T08:23:51.743Z,95362.00
2023-06-28T08:24:51.716Z,95364.00
2023-06-28T08:25:51.745Z,95362.00
2023-06-28T08:26:51.797Z,95362.00
2023-06-28T08:27:51.845Z,95360.00
2023-06-28T08:28:59.970Z,95361.00
2023-06-28T08:29:52.798Z,95359.00
2023-06-28T08:30:51.839Z,95358.00
2023-06-28T08:31:51.766Z,95359.00
2023-06-28T08:32:51.818Z,95357.00
2023-06-28T08:33:51.745Z,95358.00
2023-06-28T08:34:51.807Z,95359.00
2023-06-28T08:35:51.796Z,95356.00
2023-06-28T08:36:51.734Z,95358.00
2023-06-28T08:37:51.748Z,95359.00
2023-06-28T08:38:51.744Z,95360.00
2023-06-28T08:39:51.842Z,95360.00
2023-06-28T08:40:51.891Z,95359.00
2023-06-28T08:41:51.926Z,95360.00
2023-06-28T08:42:51.976Z,95362.00
2023-06-28T08:43:52.009Z,95360.00
2023-06-28T08:44:55.788Z,95361.00
2023-06-28T08:45:52.072Z,95360.00
2023-06-28T08:46:52.104Z,95364.00
2023-06-28T08:47:52.126Z,95362.00
2023-06-28T08:48:52.084Z,95360.00
2023-06-28T08:49:52.036Z,95359.00
2023-06-28T08:50:52.026Z,95357.00
2023-06-28T08:51:52.108Z,95358.00
2023-06-28T08:52:52.014Z,95357.00
2023-06-28T08:53:51.993Z,95357.00
2023-06-28T08:54:52.007Z,95358.00
2023-06-28T08:55:51.976Z,95358.00
2023-06-28T08:57:11.394Z,95358.00
2023-06-28T08:57:52.973Z,95359.00
2023-06-28T08:58:52.072Z,95358.00
2023-06-28T08:59:51.963Z,95355.00
2023-06-28T09:00:51.979Z,95356.00
2023-06-28T09:01:51.976Z,95355.00
2023-06-28T09:02:51.998Z,95354.00
2023-06-28T09:03:52.032Z,95352.00
2023-06-28T09:04:51.959Z,95352.00
2023-06-28T09:05:51.951Z,95352.00
2023-06-28T09:06:52.057Z,95353.00
2023-06-28T09:07:52.028Z,95355.00
2023-06-28T09:08:52.115Z,95355.00
2023-06-28T09:09:52.168Z,95354.00
2023-06-28T09:10:52.254Z,95354.00
2023-06-28T09:11:52.316Z,95355.00
2023-06-28T09:12:52.385Z,95355.00
2023-06-28T09:13:52.427Z,95354.00
2023-06-28T09:14:52.522Z,95354.00
2023-06-28T09:15:52.567Z,95353.00
2023-06-28T09:16:52.634Z,95356.00
2023-06-28T09:17:52.768Z,95352.00
2023-06-28T09:18:52.743Z,95350.00
2023-06-28T09:19:52.816Z,95351.00
2023-06-28T09:20:52.943Z,95346.00
2023-06-28T09:21:52.947Z,95347.00
2023-06-28T09:22:52.994Z,95348.00
2023-06-28T09:23:53.158Z,95350.00
2023-06-28T09:24:53.113Z,95353.00
2023-06-28T09:25:53.179Z,95356.00
2023-06-28T09:26:53.235Z,95353.00
2023-06-28T09:27:53.286Z,95354.00
2023-06-28T09:28:53.354Z,95354.00
2023-06-28T09:29:53.395Z,95352.00
2023-06-28T09:30:53.465Z,95353.00
2023-06-28T09:31:53.558Z,95352.00
2023-06-28T09:32:53.646Z,95352.00
2023-06-28T09:33:56.959Z,95351.00
2023-06-28T09:34:53.727Z,95353.00
2023-06-28T09:35:53.718Z,95355.00
2023-06-28T09:36:53.661Z,95355.00
2023-06-28T09:37:53.647Z,95353.00
2023-06-28T09:38:53.614Z,95352.00
2023-06-28T09:39:53.595Z,95356.00
2023-06-28T09:40:53.637Z,95356.00
2023-06-28T09:41:53.615Z,95355.00
2023-06-28T09:42:53.562Z,95354.00
2023-06-28T09:43:53.586Z,95353.00
2023-06-28T09:44:53.630Z,95353.00
2023-06-28T09:45:53.679Z,95351.00
2023-06-28T09:46:53.595Z,95352.00
2023-06-28T09:47:53.576Z,95351.00
2023-06-28T09:48:53.524Z,95348.00
2023-06-28T09:49:53.609Z,95351.00
2023-06-28T09:50:53.513Z,95352.00
2023-06-28T09:51:53.489Z,95350.00
2023-06-28T09:52:53.541Z,95351.00
2023-06-28T09:53:53.606Z,95348.00
2023-06-28T09:54:53.657Z,95347.00
2023-06-28T09:55:53.726Z,95345.00
2023-06-28T09:56:53.752Z,95343.00
2023-06-28T09:57:53.805Z,95342.00
2023-06-28T09:58:53.854Z,95339.00
2023-06-28T09:59:53.948Z,95340.00
2023-06-28T10:00:53.956Z,95340.00
2023-06-28T10:01:54.003Z,95339.00
2023-06-28T10:02:54.321Z,95340.00
2023-06-28T10:03:54.515Z,95339.00
2023-06-28T10:04:54.236Z,95339.00
2023-06-28T10:05:54.194Z,95339.00
2023-06-28T10:06:54.318Z,95340.00
2023-06-28T10:07:54.278Z,95338.00
2023-06-28T10:08:55.123Z,95336.00
2023-06-28T10:09:54.357Z,95338.00
2023-06-28T10:10:54.437Z,95341.00
2023-06-28T10:11:54.458Z,95340.00
2023-06-28T10:12:54.528Z,95338.00
2023-06-28T10:13:54.566Z,95338.00
2023-06-28T10:14:55.213Z,95341.00
2023-06-28T10:15:54.628Z,95337.00
2023-06-28T10:16:54.699Z,95337.00
2023-06-28T10:17:54.826Z,95339.00
2023-06-28T10:18:54.762Z,95339.00
2023-06-28T10:19:54.830Z,95337.00
2023-06-28T10:20:56.422Z,95339.00
2023-06-28T10:21:54.898Z,95340.00
2023-06-28T10:22:54.954Z,95344.00
2023-06-28T10:23:54.976Z,95341.00
2023-06-28T10:24:55.044Z,95342.00
2023-06-28T10:25:55.086Z,95343.00
2023-06-28T10:26:55.128Z,95342.00
2023-06-28T10:27:55.156Z,95341.00
2023-06-28T10:28:55.175Z,95343.00
2023-06-28T10:29:55.285Z,95341.00
2023-06-28T10:30:55.257Z,95338.00
2023-06-28T10:31:55.348Z,95338.00
2023-06-28T10:32:55.441Z,95335.00
2023-06-28T10:33:55.359Z,95332.00
2023-06-28T10:34:55.417Z,95333.00
2023-06-28T10:35:55.462Z,95333.00
2023-06-28T10:36:55.511Z,95332.00
2023-06-28T10:37:55.530Z,95335.00
2023-06-28T10:38:55.580Z,95334.00
2023-06-28T10:39:55.584Z,95334.00
2023-06-28T10:40:55.636Z,95337.00
2023-06-28T10:41:55.686Z,95336.00
2023-06-28T10:42:55.690Z,95337.00
2023-06-28T10:43:55.755Z,95339.00
2023-06-28T10:44:55.764Z,95338.00
2023-06-28T10:45:55.789Z,95339.00
2023-06-28T10:46:55.862Z,95339.00
2023-06-28T10:47:55.922Z,95340.00
2023-06-28T10:48:55.890Z,95339.00
2023-06-28T10:49:55.908Z,95338.00
2023-06-28T10:50:55.942Z,95336.00
2023-06-28T10:51:55.947Z,95335.00
2023-06-28T10:52:55.944Z,95334.00
2023-06-28T10:53:55.996Z,95336.00
2023-06-28T10:54:56.835Z,95336.00
2023-06-28T10:55:56.025Z,95333.00
2023-06-28T10:56:56.048Z,95333.00
2023-06-28T10:57:56.057Z,95332.00
2023-06-28T10:58:56.089Z,95332.00
2023-06-28T10:59:56.069Z,95332.00
2023-06-28T11:00:56.173Z,95328.00
2023-06-28T11:01:56.212Z,95327.00
2023-06-28T11:02:56.182Z,95326.00
2023-06-28T11:03:56.127Z,95327.00
2023-06-28T11:04:56.186Z,95328.00
2023-06-28T11:05:56.165Z,95328.00
2023-06-28T11:06:56.164Z,95327.00
2023-06-28T11:07:56.159Z,95326.00
2023-06-28T11:08:56.159Z,95327.00
2023-06-28T11:09:56.158Z,95326.00
2023-06-28T11:10:56.253Z,95325.00
2023-06-28T11:11:56.205Z,95325.00
2023-06-28T11:12:56.206Z,95322.00
2023-06-28T11:13:56.218Z,95320.00
2023-06-28T11:14:56.183Z,95323.00
2023-06-28T11:15:56.258Z,95320.00
2023-06-28T11:16:56.236Z,95318.00
2023-06-28T11:17:56.266Z,95321.00
2023-06-28T11:18:56.253Z,95319.00
2023-06-28T11:19:56.229Z,95317.00
2023-06-28T11:20:56.236Z,95318.00
2023-06-28T11:21:56.290Z,95321.00
2023-06-28T11:22:56.270Z,95320.00
2023-06-28T11:23:56.350Z,95322.00
2023-06-28T11:24:56.281Z,95320.00
2023-06-28T11:25:56.276Z,95319.00
2023-06-28T11:26:56.289Z,95318.00
2023-06-28T11:27:56.333Z,95317.00
2023-06-28T11:28:56.341Z,95315.00
2023-06-28T11:29:56.285Z,95315.00
2023-06-28T11:30:56.399Z,95317.00
2023-06-28T11:31:56.343Z,95317.00
2023-06-28T11:32:56.343Z,95318.00
2023-06-28T11:33:56.306Z,95316.00
2023-06-28T11:34:56.398Z,95317.00
2023-06-28T11:35:56.304Z,95320.00
2023-06-28T11:36:57.762Z,95317.00
2023-06-28T11:37:56.298Z,95320.00
2023-06-28T11:38:56.319Z,95321.00
2023-06-28T11:39:56.307Z,95321.00
2023-06-28T11:40:56.286Z,95318.00
2023-06-28T11:41:56.298Z,95321.00
2023-06-28T11:42:56.290Z,95321.00
2023-06-28T11:43:56.276Z,95324.00
2023-06-28T11:44:56.285Z,95323.00